CheckWX is a tool to help pilots better visualize weather data.  It is not intended as a substitute for an official pre-flight weather briefing.

20:16:56 UTC

PABR TAF
Wiley Post-Will Rogers Memorial Airport
Barrow, Alaska, USA
PABR 251720Z 2518/2618 32005KT 3SM BR OVC003 FM251900 01006KT P6SM VCFG SCT010 FM260400 10006KT P6SM SCT010

Jun-25@
18:00 UTC

Jun-25 @ 18:00 UTC

Jun-25@
19:00 UTC

Jun-25 @ 19:00 UTC

PABR 251720Z 2518/2618 32005KT 3SM BR OVC003

Expired

Wind
  • 320° at 5 KTS
Conditions
Mist
Cloud Levels
  • Overcast at 300' AGL

Jun-25@
19:00 UTC

Jun-25 @ 19:00 UTC

Jun-26@
04:00 UTC

Jun-26 @ 04:00 UTC

FM251900 01006KT P6SM VCFG SCT010

From

From Standard forecast or significant change

Wind
  • 010° at 6 KTS
Conditions
Area Fog
Cloud Levels
  • Scattered at 1,000' AGL

Jun-26@
04:00 UTC

Jun-26 @ 04:00 UTC

Jun-26@
18:00 UTC

Jun-26 @ 18:00 UTC

FM260400 10006KT P6SM SCT010

From

From Standard forecast or significant change

Wind
  • 100° at 6 KTS
Cloud Levels
  • Scattered at 1,000' AGL